Time;durP1;ratioP1;P1;durP2;ratioP2;P2;SDS_P1;SDS_P2;PMS_P1;PMS_P2;Temp;Humidity;BMP_temperature;BMP_pressure;BME280_temperature;BME280_humidity;BME280_pressure;Samples;Min_cycle;Max_cycle;Signal;HPM_P1;HPM_P2
2022/03/12 00:01:03;;;;;;;57.30;51.70;;;;;;;-4.75;43.22;99399.79;105828;1280;22612;-78
2022/03/12 00:03:32;;;;;;;56.10;48.70;;;;;;;-4.77;43.21;99399.40;105784;1280;22589;-78
2022/03/12 00:06:00;;;;;;;56.60;50.50;;;;;;;-4.80;43.47;99400.39;105762;1278;22802;-77
2022/03/12 00:08:40;;;;;;;60.80;53.50;;;;;;;-4.83;43.55;99400.35;105837;1278;23660;-78
2022/03/12 00:11:10;;;;;;;64.10;57.40;;;;;;;-4.87;43.36;99392.50;105730;1280;22564;-77
2022/03/12 00:13:39;;;;;;;61.80;52.90;;;;;;;-4.89;43.35;99393.31;105508;1280;22576;-77
2022/03/12 00:16:13;;;;;;;62.80;52.50;;;;;;;-4.91;43.60;99393.17;105833;1278;24285;-78
2022/03/12 00:18:44;;;;;;;61.10;53.60;;;;;;;-4.93;43.70;99389.83;105577;1279;22643;-76
2022/03/12 00:21:13;;;;;;;59.10;51.90;;;;;;;-4.96;43.98;99384.92;105880;1279;23098;-77
2022/03/12 00:23:44;;;;;;;59.20;52.70;;;;;;;-4.98;43.91;99378.13;105575;1280;24307;-78
2022/03/12 00:26:14;;;;;;;64.30;57.30;;;;;;;-5.00;43.91;99380.08;105718;1281;25489;-77
2022/03/12 00:28:43;;;;;;;65.30;53.80;;;;;;;-5.03;43.90;99380.17;105740;1280;22560;-78
2022/03/12 00:31:13;;;;;;;62.30;55.20;;;;;;;-5.05;44.44;99381.75;105882;1280;24390;-78
2022/03/12 00:33:41;;;;;;;60.50;53.90;;;;;;;-5.05;44.15;99380.45;105798;1280;22574;-78
2022/03/12 00:36:09;;;;;;;67.40;56.20;;;;;;;-5.07;44.32;99378.13;105821;1280;24289;-77
2022/03/12 00:38:37;;;;;;;64.60;57.40;;;;;;;-5.08;44.28;99375.98;105825;1280;25414;-78
2022/03/12 00:41:09;;;;;;;63.20;54.30;;;;;;;-5.10;44.36;99369.89;105788;1280;23341;-78
2022/03/12 00:43:36;;;;;;;62.90;56.10;;;;;;;-5.10;44.24;99370.77;105901;1278;24094;-78
2022/03/12 00:46:05;;;;;;;65.10;58.10;;;;;;;-5.11;44.41;99370.73;105744;1280;22561;-78
2022/03/12 00:48:34;;;;;;;63.30;56.20;;;;;;;-5.13;44.51;99370.77;105762;1277;23962;-79
2022/03/12 00:51:07;;;;;;;62.90;55.90;;;;;;;-5.14;44.55;99370.14;105769;1280;22671;-79
2022/03/12 00:53:37;;;;;;;65.10;58.10;;;;;;;-5.13;44.65;99370.23;105733;1279;22884;-80
2022/03/12 00:56:06;;;;;;;60.90;54.30;;;;;;;-5.14;44.59;99364.39;105774;1278;22781;-80
2022/03/12 00:58:37;;;;;;;61.10;54.20;;;;;;;-5.16;44.65;99365.47;105738;1280;22713;-81
2022/03/12 01:01:06;;;;;;;60.40;54.00;;;;;;;-5.16;44.75;99370.24;105762;1279;24283;-80
2022/03/12 01:03:34;;;;;;;60.00;53.40;;;;;;;-5.17;44.97;99372.01;105767;1280;22696;-80
2022/03/12 01:06:04;;;;;;;62.10;55.30;;;;;;;-5.17;44.76;99369.96;105514;1280;25269;-80
2022/03/12 01:08:36;;;;;;;64.60;56.60;;;;;;;-5.18;44.77;99372.11;105547;1279;23347;-78
2022/03/12 01:11:07;;;;;;;60.40;54.10;;;;;;;-5.19;44.79;99375.65;105546;1280;25331;-78
2022/03/12 01:13:38;;;;;;;59.80;50.70;;;;;;;-5.21;44.78;99371.61;105702;1280;25522;-80
2022/03/12 01:16:07;;;;;;;49.50;44.20;;;;;;;-5.22;45.01;99376.08;105307;1280;22690;-79
2022/03/12 01:18:38;;;;;;;54.40;47.20;;;;;;;-5.22;44.97;99379.46;105765;1280;22544;-79
2022/03/12 01:21:16;;;;;;;56.10;49.90;;;;;;;-5.22;44.84;99377.36;105768;1280;22551;-78
2022/03/12 01:23:48;;;;;;;62.00;54.10;;;;;;;-5.22;44.94;99375.19;105485;1280;213184;-80
2022/03/12 01:26:18;;;;;;;59.10;52.90;;;;;;;-5.22;44.92;99370.98;105474;1281;25278;-79
2022/03/12 01:28:46;;;;;;;57.30;51.20;;;;;;;-5.21;45.27;99373.58;106097;1280;23567;-78
2022/03/12 01:31:16;;;;;;;59.00;52.80;;;;;;;-5.21;45.05;99370.75;105962;1280;22548;-78
2022/03/12 01:33:44;;;;;;;58.30;51.90;;;;;;;-5.21;45.24;99370.91;105638;1277;23238;-79
2022/03/12 01:36:13;;;;;;;61.10;54.30;;;;;;;-5.22;45.24;99364.73;105505;1278;25663;-76
2022/03/12 01:38:49;;;;;;;58.30;52.30;;;;;;;-5.23;45.23;99369.75;105436;1281;25355;-78
2022/03/12 01:41:32;;;;;;;61.50;54.00;;;;;;;-5.25;45.11;99368.65;105704;1278;24235;-79
2022/03/12 01:44:02;;;;;;;58.50;52.50;;;;;;;-5.27;45.33;99372.02;105659;1280;25372;-79
2022/03/12 01:46:34;;;;;;;59.40;52.90;;;;;;;-5.29;45.33;99369.65;105760;1280;22662;-78
2022/03/12 01:49:06;;;;;;;61.10;54.40;;;;;;;-5.31;45.44;99366.02;105521;1281;24349;-82
2022/03/12 01:51:34;;;;;;;61.40;54.90;;;;;;;-5.25;47.37;99363.26;106125;1280;22544;-79
2022/03/12 01:54:03;;;;;;;54.50;48.50;;;;;;;-5.01;46.62;99365.60;105774;1280;22665;-78
2022/03/12 01:56:34;;;;;;;54.90;48.50;;;;;;;-5.01;46.21;99359.85;105980;1277;23301;-80
2022/03/12 01:59:03;;;;;;;57.00;50.40;;;;;;;-5.06;46.07;99355.23;105956;1279;23209;-78
2022/03/12 02:01:32;;;;;;;52.70;46.50;;;;;;;-5.11;46.14;99354.61;105884;1279;22550;-79
2022/03/12 02:04:07;;;;;;;57.40;50.10;;;;;;;-5.16;46.54;99352.15;105812;1280;25440;-79
2022/03/12 02:06:43;;;;;;;51.20;45.60;;;;;;;-5.19;46.55;99349.66;106064;1280;22571;-81
2022/03/12 02:09:15;;;;;;;52.90;45.90;;;;;;;-5.21;46.39;99350.75;105915;1280;25305;-79
2022/03/12 02:11:49;;;;;;;52.40;46.80;;;;;;;-5.22;46.59;99346.84;105999;1280;24245;-82
2022/03/12 02:14:20;;;;;;;53.10;47.40;;;;;;;-5.22;46.66;99344.27;105931;1278;25408;-81
2022/03/12 02:16:57;;;;;;;52.30;46.80;;;;;;;-5.23;46.63;99346.90;105885;1280;22734;-80
2022/03/12 02:19:26;;;;;;;51.60;45.60;;;;;;;-5.23;46.39;99345.59;105876;1278;22553;-78
2022/03/12 02:21:54;;;;;;;50.50;45.10;;;;;;;-5.24;46.49;99344.56;105857;1280;25418;-80
2022/03/12 02:24:27;;;;;;;52.80;46.00;;;;;;;-5.37;46.60;99323.82;105948;1280;25292;-79
2022/03/12 02:27:00;;;;;;;52.90;47.10;;;;;;;-5.26;46.54;99336.74;105999;1278;25277;-81
2022/03/12 02:29:31;;;;;;;53.70;47.90;;;;;;;-5.28;46.71;99336.57;105776;1280;24385;-79
2022/03/12 02:32:09;;;;;;;52.80;47.10;;;;;;;-5.29;46.53;99334.28;106018;1280;23977;-80
2022/03/12 02:34:46;;;;;;;57.00;49.10;;;;;;;-5.33;46.52;99327.97;105751;1280;22874;-80
2022/03/12 02:40:16;;;;;;;56.50;50.10;;;;;;;-5.38;46.57;99330.85;106014;1278;24404;-79
2022/03/12 02:42:46;;;;;;;63.90;50.20;;;;;;;-5.40;46.86;99332.65;106489;1278;25656;-80
2022/03/12 02:45:25;;;;;;;60.30;51.60;;;;;;;-5.42;46.92;99337.05;106135;1277;24410;-79
2022/03/12 02:47:55;;;;;;;55.70;49.60;;;;;;;-5.45;47.02;99342.63;106403;1278;25529;-80
2022/03/12 02:50:27;;;;;;;57.10;51.00;;;;;;;-5.49;47.03;99337.55;105871;1280;22537;-78
2022/03/12 02:52:54;;;;;;;57.20;51.30;;;;;;;-5.50;47.22;99344.52;105910;1280;22560;-79
2022/03/12 02:55:24;;;;;;;64.40;53.00;;;;;;;-5.52;47.07;99338.89;105985;1278;25376;-79
2022/03/12 02:57:52;;;;;;;56.90;50.60;;;;;;;-5.53;47.25;99331.46;106079;1278;23977;-81
2022/03/12 03:00:20;;;;;;;57.40;51.20;;;;;;;-5.54;47.22;99329.09;105945;1278;22647;-80
2022/03/12 03:02:53;;;;;;;55.10;46.20;;;;;;;-5.55;47.18;99329.39;105903;1278;23471;-78
2022/03/12 03:05:38;;;;;;;52.10;46.00;;;;;;;-5.54;47.24;99325.81;105961;1279;22552;-80
2022/03/12 03:08:08;;;;;;;50.60;45.30;;;;;;;-5.52;47.38;99331.77;105870;1279;22558;-81
2022/03/12 03:10:44;;;;;;;50.50;45.30;;;;;;;-5.51;47.22;99328.31;106008;1277;22847;-79
2022/03/12 03:13:19;;;;;;;47.50;42.10;;;;;;;-5.49;47.18;99331.98;105801;1277;23023;-79
2022/03/12 03:16:08;;;;;;;45.90;40.90;;;;;;;-5.47;47.30;99330.54;105936;1278;24491;-81
2022/03/12 03:18:40;;;;;;;44.20;39.40;;;;;;;-5.44;47.34;99329.39;105873;1279;22584;-80
2022/03/12 03:21:13;;;;;;;44.60;39.70;;;;;;;-5.41;47.69;99323.64;105950;1279;25055;-79
2022/03/12 03:23:44;;;;;;;45.90;37.50;;;;;;;-5.39;47.62;99324.77;106003;1278;25535;-79
2022/03/12 03:26:14;;;;;;;41.30;36.80;;;;;;;-5.35;47.75;99323.17;105891;1278;22560;-80
2022/03/12 03:28:42;;;;;;;40.80;36.30;;;;;;;-5.32;47.69;99324.02;106072;1278;22535;-80
2022/03/12 03:31:10;;;;;;;41.00;36.50;;;;;;;-5.29;47.78;99323.20;105923;1277;25303;-79
2022/03/12 03:33:41;;;;;;;46.10;38.60;;;;;;;-5.26;47.59;99318.68;105939;1278;22569;-80
2022/03/12 03:36:09;;;;;;;47.90;42.40;;;;;;;-5.23;47.86;99317.55;105955;1277;25444;-80
2022/03/12 03:38:39;;;;;;;43.30;38.50;;;;;;;-5.21;48.08;99315.17;105968;1277;22548;-79
2022/03/12 03:41:07;;;;;;;43.00;38.50;;;;;;;-5.19;47.85;99317.13;105830;1280;24382;-81
2022/03/12 03:43:38;;;;;;;45.40;40.70;;;;;;;-5.17;48.13;99322.27;106024;1277;22559;-82
2022/03/12 03:46:20;;;;;;;44.80;40.10;;;;;;;-5.15;47.92;99320.52;105903;1280;24113;-79
2022/03/12 03:48:51;;;;;;;47.00;40.80;;;;;;;-5.13;48.01;99319.27;105907;1278;22853;-80
2022/03/12 03:51:21;;;;;;;44.80;40.10;;;;;;;-5.12;47.95;99315.94;105747;1280;22733;-80
2022/03/12 03:53:50;;;;;;;44.80;39.80;;;;;;;-5.10;48.18;99319.77;105918;1277;22740;-80
2022/03/12 03:56:19;;;;;;;44.40;39.80;;;;;;;-5.08;48.00;99324.49;106107;1277;22718;-79
2022/03/12 03:58:47;;;;;;;42.80;38.30;;;;;;;-5.06;48.11;99325.17;105951;1277;23934;-78
2022/03/12 04:01:17;;;;;;;45.90;41.10;;;;;;;-5.05;47.75;99325.58;105812;1280;25310;-78
2022/03/12 04:03:48;;;;;;;42.00;37.50;;;;;;;-5.05;47.87;99326.20;106086;1278;22641;-79
2022/03/12 04:06:21;;;;;;;41.10;36.80;;;;;;;-5.04;47.97;99325.44;106031;1278;23543;-79
2022/03/12 04:08:50;;;;;;;40.20;36.00;;;;;;;-5.03;47.96;99326.75;106039;1278;23962;-78
2022/03/12 04:11:23;;;;;;;40.80;36.50;;;;;;;-5.03;47.81;99326.20;105969;1277;25447;-79
2022/03/12 04:13:53;;;;;;;39.10;35.10;;;;;;;-5.03;47.65;99329.88;105847;1280;22644;-78
2022/03/12 04:16:25;;;;;;;41.20;36.80;;;;;;;-5.03;47.87;99329.70;105917;1278;22553;-78
2022/03/12 04:18:54;;;;;;;40.00;35.60;;;;;;;-5.04;47.69;99328.54;105983;1278;23162;-82
2022/03/12 04:21:22;;;;;;;41.20;36.80;;;;;;;-5.03;47.83;99327.80;106030;1278;23953;-80
2022/03/12 04:23:51;;;;;;;38.80;34.70;;;;;;;-5.04;47.73;99326.32;106027;1280;24396;-80
2022/03/12 04:26:19;;;;;;;40.00;35.70;;;;;;;-5.04;47.69;99322.65;106021;1278;23946;-80
2022/03/12 04:28:47;;;;;;;37.50;33.60;;;;;;;-5.05;47.82;99326.73;105961;1278;22744;-80
2022/03/12 04:31:15;;;;;;;38.50;34.50;;;;;;;-5.04;47.80;99321.46;106045;1278;23188;-78
2022/03/12 04:33:42;;;;;;;38.50;33.50;;;;;;;-5.05;47.69;99321.83;105828;1277;25252;-78
2022/03/12 04:36:12;;;;;;;37.30;33.30;;;;;;;-5.05;47.76;99318.15;106031;1277;23310;-78
2022/03/12 04:38:41;;;;;;;38.60;34.40;;;;;;;-5.04;47.74;99320.18;106011;1278;22739;-80
2022/03/12 04:41:12;;;;;;;36.70;32.90;;;;;;;-5.05;47.86;99323.93;106042;1277;22871;-80
2022/03/12 04:43:42;;;;;;;37.60;33.70;;;;;;;-5.04;47.58;99324.61;105894;1277;22552;-79
2022/03/12 04:46:10;;;;;;;40.20;36.00;;;;;;;-5.05;47.75;99326.27;106087;1278;22677;-79
2022/03/12 04:48:38;;;;;;;41.60;37.10;;;;;;;-5.06;47.86;99327.43;106662;1277;23827;-81
2022/03/12 04:51:06;;;;;;;54.90;46.90;;;;;;;-5.08;47.89;99330.56;106451;1277;22846;-78
2022/03/12 04:53:34;;;;;;;54.80;46.70;;;;;;;-5.11;47.71;99330.55;106476;1277;22660;-79
2022/03/12 04:56:02;;;;;;;49.60;43.50;;;;;;;-5.15;47.73;99328.39;106260;1278;22724;-78
2022/03/12 04:58:29;;;;;;;46.70;41.70;;;;;;;-5.19;47.75;99327.20;106151;1278;24259;-79
2022/03/12 05:00:57;;;;;;;49.30;41.20;;;;;;;-5.23;47.93;99326.45;105987;1279;22711;-79
2022/03/12 05:03:25;;;;;;;46.40;41.10;;;;;;;-5.29;47.69;99328.96;105886;1278;22783;-78
2022/03/12 05:05:54;;;;;;;47.20;42.00;;;;;;;-5.33;47.75;99330.47;106030;1277;22624;-81
2022/03/12 05:08:25;;;;;;;46.20;40.50;;;;;;;-5.36;47.72;99331.64;106084;1278;22561;-78
2022/03/12 05:10:56;;;;;;;54.90;49.10;;;;;;;-5.38;47.80;99333.64;106070;1278;22688;-80
2022/03/12 05:13:27;;;;;;;54.30;48.50;;;;;;;-5.42;47.97;99332.77;106033;1278;23574;-79
2022/03/12 05:16:08;;;;;;;67.60;53.70;;;;;;;-5.47;47.81;99331.05;106127;1277;22631;-77
2022/03/12 05:18:36;;;;;;;62.60;52.10;;;;;;;-5.53;48.15;99327.63;105930;1277;22622;-80
2022/03/12 05:21:06;;;;;;;63.40;51.00;;;;;;;-5.56;48.05;99330.41;106053;1277;22700;-78
2022/03/12 05:23:35;;;;;;;60.10;53.80;;;;;;;-5.59;48.21;99327.91;105682;1278;25434;-80
2022/03/12 05:26:03;;;;;;;52.80;47.10;;;;;;;-5.63;48.17;99327.49;105995;1281;22546;-80
2022/03/12 05:28:32;;;;;;;49.80;44.60;;;;;;;-5.65;48.11;99327.69;105793;1278;22696;-80
2022/03/12 05:31:04;;;;;;;51.10;44.20;;;;;;;-5.63;48.17;99329.40;106004;1277;22562;-79
2022/03/12 05:33:34;;;;;;;48.30;42.00;;;;;;;-5.58;48.27;99329.42;105905;1281;24332;-78
2022/03/12 05:36:03;;;;;;;50.10;40.10;;;;;;;-5.51;48.38;99335.61;105768;1277;22566;-78
2022/03/12 05:38:34;;;;;;;48.40;40.30;;;;;;;-5.40;48.69;99335.76;105682;1278;22628;-78
2022/03/12 05:41:11;;;;;;;45.30;39.00;;;;;;;-5.26;48.71;99335.86;105982;1277;22545;-78
2022/03/12 05:43:47;;;;;;;46.50;38.20;;;;;;;-5.12;48.83;99334.15;105948;1278;23018;-78
2022/03/12 05:46:20;;;;;;;56.10;36.80;;;;;;;-4.95;48.84;99331.53;105921;1280;22749;-80
2022/03/12 05:48:50;;;;;;;55.40;48.00;;;;;;;-4.80;48.92;99330.77;106018;1278;25392;-79
2022/03/12 05:51:19;;;;;;;59.20;51.70;;;;;;;-4.71;48.82;99328.37;106076;1277;22703;-79
2022/03/12 05:53:49;;;;;;;60.90;51.90;;;;;;;-4.64;48.75;99329.58;105872;1281;22713;-81
2022/03/12 05:56:17;;;;;;;61.10;54.50;;;;;;;-4.59;48.91;99326.39;105964;1277;23105;-80
2022/03/12 05:58:45;;;;;;;66.30;57.40;;;;;;;-4.57;48.84;99329.17;105695;1277;22567;-80
2022/03/12 06:01:13;;;;;;;68.00;61.00;;;;;;;-4.55;48.99;99324.73;106062;1277;24242;-78
2022/03/12 06:03:41;;;;;;;74.40;60.40;;;;;;;-4.52;48.81;99322.89;106029;1278;26686;-79
2022/03/12 06:06:09;;;;;;;64.60;56.60;;;;;;;-4.49;48.91;99319.34;106037;1278;22686;-79
2022/03/12 06:08:39;;;;;;;57.90;48.20;;;;;;;-4.45;48.80;99320.22;106046;1278;24437;-80
2022/03/12 06:11:07;;;;;;;59.40;42.40;;;;;;;-4.43;48.69;99315.77;105967;1280;22554;-80
2022/03/12 06:13:36;;;;;;;126.50;47.50;;;;;;;-4.40;48.72;99319.28;105969;1278;22801;-79
2022/03/12 06:16:04;;;;;;;47.90;42.80;;;;;;;-4.36;48.86;99317.98;105538;1281;22705;-79
2022/03/12 06:18:36;;;;;;;46.40;41.50;;;;;;;-4.31;48.75;99317.72;105928;1280;22574;-79
2022/03/12 06:21:06;;;;;;;44.90;40.00;;;;;;;-4.26;48.80;99311.59;105952;1277;22728;-79
2022/03/12 06:23:34;;;;;;;44.80;39.90;;;;;;;-4.21;48.80;99311.54;106019;1277;22553;-79
2022/03/12 06:26:03;;;;;;;42.50;38.10;;;;;;;-4.14;48.72;99310.11;105966;1277;23951;-80
2022/03/12 06:28:37;;;;;;;39.50;35.40;;;;;;;-4.07;48.73;99314.11;105992;1278;22639;-81
2022/03/12 06:31:05;;;;;;;40.90;36.40;;;;;;;-3.99;48.68;99321.60;105969;1277;22672;-79
2022/03/12 06:33:34;;;;;;;38.10;33.80;;;;;;;-3.91;48.72;99318.46;105970;1277;22720;-80
2022/03/12 06:36:02;;;;;;;35.90;32.10;;;;;;;-3.83;48.69;99321.06;106058;1277;22677;-80
2022/03/12 06:38:32;;;;;;;42.00;32.80;;;;;;;-3.75;48.66;99317.51;105925;1277;22675;-80
2022/03/12 06:41:00;;;;;;;40.20;33.40;;;;;;;-3.65;48.80;99316.20;105944;1277;23195;-78
2022/03/12 06:43:30;;;;;;;37.00;33.00;;;;;;;-3.56;48.67;99314.16;105851;1277;24450;-80
2022/03/12 06:46:01;;;;;;;42.40;38.00;;;;;;;-3.47;48.65;99319.46;105868;1280;22558;-81
2022/03/12 06:48:32;;;;;;;41.60;37.10;;;;;;;-3.38;48.72;99324.83;106017;1278;22673;-80
2022/03/12 06:51:01;;;;;;;38.50;34.50;;;;;;;-3.30;48.69;99325.98;105977;1277;22550;-80
2022/03/12 06:53:30;;;;;;;41.20;33.80;;;;;;;-3.23;48.69;99328.27;105948;1277;24449;-77
2022/03/12 06:55:59;;;;;;;35.20;31.40;;;;;;;-3.13;48.60;99326.41;106062;1277;24240;-80
2022/03/12 06:58:27;;;;;;;36.10;32.20;;;;;;;-3.05;48.47;99325.63;106102;1277;22699;-79
2022/03/12 07:00:56;;;;;;;33.90;30.20;;;;;;;-2.97;48.36;99322.86;106575;1278;22548;-79
2022/03/12 07:03:24;;;;;;;31.90;28.40;;;;;;;-2.88;48.43;99319.40;106462;1277;22801;-80
2022/03/12 07:05:52;;;;;;;32.20;28.90;;;;;;;-2.79;48.35;99321.30;105959;1277;22577;-80
2022/03/12 07:08:21;;;;;;;36.10;31.40;;;;;;;-2.68;48.31;99321.74;105897;1277;22552;-81
2022/03/12 07:10:50;;;;;;;35.60;31.90;;;;;;;-2.59;48.25;99323.73;106104;1277;22564;-80
2022/03/12 07:13:18;;;;;;;33.60;29.00;;;;;;;-2.48;48.14;99329.23;106056;1278;22536;-79
2022/03/12 07:15:46;;;;;;;30.90;27.70;;;;;;;-2.37;48.15;99325.38;105947;1278;24246;-79
2022/03/12 07:18:14;;;;;;;32.00;28.30;;;;;;;-2.25;48.09;99325.92;105885;1278;22557;-80
2022/03/12 07:20:42;;;;;;;32.40;28.40;;;;;;;-2.14;48.00;99326.23;106238;1278;22712;-80
2022/03/12 07:23:10;;;;;;;33.90;30.40;;;;;;;-2.03;47.96;99327.09;106028;1278;22576;-83
2022/03/12 07:25:38;;;;;;;34.30;30.60;;;;;;;-1.92;47.93;99329.99;106096;1278;22547;-82
2022/03/12 07:28:06;;;;;;;34.50;30.80;;;;;;;-1.80;47.78;99334.27;105959;1277;24446;-79
2022/03/12 07:30:34;;;;;;;34.10;30.40;;;;;;;-1.69;47.77;99337.64;105946;1277;25552;-79
2022/03/12 07:33:03;;;;;;;32.90;29.40;;;;;;;-1.58;47.77;99335.55;106517;1277;25411;-79
2022/03/12 07:35:33;;;;;;;30.50;27.40;;;;;;;-1.46;47.49;99336.15;106407;1278;24225;-81
2022/03/12 07:38:01;;;;;;;30.50;26.00;;;;;;;-1.37;47.53;99337.06;105904;1277;23968;-81
2022/03/12 07:40:29;;;;;;;28.00;25.20;;;;;;;-1.29;47.16;99338.94;105960;1277;25386;-78
2022/03/12 07:42:58;;;;;;;27.10;24.30;;;;;;;-1.23;47.13;99339.45;105881;1280;22581;-80
2022/03/12 07:45:26;;;;;;;28.10;25.10;;;;;;;-1.16;46.65;99343.22;105984;1277;25526;-81
2022/03/12 07:47:55;;;;;;;27.30;24.40;;;;;;;-1.09;46.43;99341.66;106103;1278;23948;-82
2022/03/12 07:50:23;;;;;;;24.00;21.50;;;;;;;-1.02;46.67;99339.14;106082;1277;22541;-85
2022/03/12 07:52:51;;;;;;;24.90;21.30;;;;;;;-0.94;46.56;99338.90;106179;1278;25347;-81
2022/03/12 07:55:19;;;;;;;28.00;25.00;;;;;;;-0.84;46.56;99342.45;106103;1278;25437;-82
2022/03/12 07:57:47;;;;;;;29.00;25.40;;;;;;;-0.76;46.48;99341.95;106144;1277;25415;-81
2022/03/12 08:00:16;;;;;;;31.90;28.70;;;;;;;-0.66;46.13;99341.10;106033;1278;22828;-79
2022/03/12 08:02:47;;;;;;;23.20;20.80;;;;;;;-0.56;46.11;99343.95;106003;1277;22498;-80
2022/03/12 08:05:23;;;;;;;23.40;20.90;;;;;;;-0.50;45.94;99340.98;105964;1278;22537;-79
2022/03/12 08:07:54;;;;;;;26.20;21.50;;;;;;;-0.38;46.01;99343.14;105928;1277;25558;-79
2022/03/12 08:10:22;;;;;;;40.20;28.60;;;;;;;-0.29;45.94;99338.73;106114;1279;24225;-77
2022/03/12 08:12:50;;;;;;;27.10;24.20;;;;;;;-0.21;45.55;99338.59;106094;1277;23127;-78
2022/03/12 08:15:19;;;;;;;26.80;21.30;;;;;;;-0.12;45.58;99338.23;106099;1278;22553;-80
2022/03/12 08:17:47;;;;;;;23.10;20.70;;;;;;;-0.04;45.56;99333.15;106432;1278;25505;-78
2022/03/12 08:20:18;;;;;;;24.80;20.60;;;;;;;0.06;45.36;99325.42;106094;1277;26349;-77
2022/03/12 08:22:46;;;;;;;25.80;21.10;;;;;;;0.16;45.28;99324.13;106114;1277;25418;-77
2022/03/12 08:25:15;;;;;;;24.00;20.50;;;;;;;0.25;45.12;99326.79;105745;1277;23165;-77
2022/03/12 08:27:43;;;;;;;28.90;23.80;;;;;;;0.36;45.09;99323.78;105776;1278;22557;-77
2022/03/12 08:30:14;;;;;;;31.50;28.30;;;;;;;0.47;44.68;99327.70;105742;1277;25428;-77
2022/03/12 08:32:42;;;;;;;32.30;28.90;;;;;;;0.56;44.66;99319.98;105685;1278;22547;-77
2022/03/12 08:35:12;;;;;;;30.00;26.80;;;;;;;0.63;44.65;99327.68;105808;1277;22560;-75
2022/03/12 08:37:41;;;;;;;27.70;24.60;;;;;;;0.72;44.63;99323.67;105690;1278;22704;-75
2022/03/12 08:40:14;;;;;;;26.40;23.50;;;;;;;0.82;44.51;99324.39;105879;1277;22577;-77
2022/03/12 08:42:42;;;;;;;25.90;23.20;;;;;;;0.92;44.72;99325.02;105880;1278;22857;-77
2022/03/12 08:45:11;;;;;;;25.50;22.00;;;;;;;1.04;44.70;99318.88;106057;1278;26795;-77
2022/03/12 08:47:40;;;;;;;22.20;19.80;;;;;;;1.15;44.28;99317.05;105693;1278;25265;-76
2022/03/12 08:50:08;;;;;;;26.60;21.20;;;;;;;1.28;44.26;99314.66;106094;1277;22593;-76
2022/03/12 08:52:37;;;;;;;22.60;20.20;;;;;;;1.40;43.98;99313.77;105831;1279;23770;-77
2022/03/12 08:55:06;;;;;;;24.40;21.90;;;;;;;1.50;44.04;99312.86;105660;1278;22498;-76
2022/03/12 08:57:34;;;;;;;26.00;21.40;;;;;;;1.61;43.98;99315.85;105658;1278;22795;-77
2022/03/12 09:00:05;;;;;;;24.90;22.00;;;;;;;1.76;44.13;99314.15;105528;1280;24239;-77
2022/03/12 09:02:34;;;;;;;28.20;21.60;;;;;;;1.89;43.86;99319.52;105951;1280;22537;-78
2022/03/12 09:05:05;;;;;;;23.90;20.00;;;;;;;2.00;43.68;99313.61;105885;1280;22556;-77
2022/03/12 09:07:34;;;;;;;21.30;19.00;;;;;;;2.09;43.49;99306.67;105829;1280;25309;-78
2022/03/12 09:10:05;;;;;;;26.60;19.60;;;;;;;2.22;43.27;99308.75;105789;1280;25494;-78
2022/03/12 09:12:33;;;;;;;21.60;19.30;;;;;;;2.32;43.12;99311.27;105534;1281;23321;-77
2022/03/12 09:15:01;;;;;;;22.00;19.60;;;;;;;2.44;43.15;99313.30;105869;1280;23187;-78
2022/03/12 09:17:28;;;;;;;23.30;20.80;;;;;;;2.57;43.17;99308.26;106165;1280;24303;-77
2022/03/12 09:19:59;;;;;;;27.00;24.20;;;;;;;2.71;42.92;99311.56;105875;1280;24120;-78
2022/03/12 09:22:27;;;;;;;29.90;23.70;;;;;;;2.82;42.30;99308.42;106163;1280;25440;-78
2022/03/12 09:24:55;;;;;;;23.70;21.30;;;;;;;2.93;42.59;99305.33;106145;1280;26097;-77
2022/03/12 09:27:23;;;;;;;24.20;21.70;;;;;;;3.05;42.23;99309.06;105762;1280;25254;-78
2022/03/12 09:29:51;;;;;;;24.50;19.90;;;;;;;3.16;41.74;99306.59;105797;1280;22561;-78
2022/03/12 09:32:20;;;;;;;23.70;21.20;;;;;;;3.30;41.67;99303.05;105460;1280;25329;-78
2022/03/12 09:34:48;;;;;;;22.50;18.40;;;;;;;3.43;41.87;99299.34;105674;1280;22552;-81
2022/03/12 09:37:18;;;;;;;22.20;19.60;;;;;;;3.52;41.81;99298.32;105808;1280;22878;-78
2022/03/12 09:39:46;;;;;;;21.10;18.90;;;;;;;3.59;41.52;99297.04;105791;1280;25399;-76
2022/03/12 09:42:15;;;;;;;22.70;20.40;;;;;;;3.61;41.47;99296.73;105772;1280;25551;-75
2022/03/12 09:44:43;;;;;;;29.60;20.80;;;;;;;3.69;41.26;99300.64;105816;1280;22557;-78
2022/03/12 09:47:14;;;;;;;23.10;20.00;;;;;;;3.77;41.29;99297.08;106072;1280;22563;-78
2022/03/12 09:49:42;;;;;;;23.50;21.10;;;;;;;3.89;40.83;99291.70;105940;1280;24107;-77
2022/03/12 09:52:12;;;;;;;21.90;19.50;;;;;;;3.98;40.96;99284.30;105872;1281;22556;-77
2022/03/12 09:54:41;;;;;;;22.70;19.70;;;;;;;4.05;40.56;99282.27;105674;1280;25423;-77
2022/03/12 09:57:09;;;;;;;20.60;18.40;;;;;;;4.13;40.72;99279.34;105725;1280;23341;-77
2022/03/12 09:59:37;;;;;;;30.10;20.10;;;;;;;4.25;40.81;99277.39;105553;1280;25384;-77
2022/03/12 10:02:05;;;;;;;23.00;20.70;;;;;;;4.33;40.83;99273.02;105811;1280;22561;-77
2022/03/12 10:04:34;;;;;;;25.60;23.00;;;;;;;4.41;40.53;99270.43;105721;1280;22691;-77
2022/03/12 10:07:03;;;;;;;27.40;24.80;;;;;;;4.52;40.17;99268.23;105976;1280;24219;-77
2022/03/12 10:09:32;;;;;;;22.50;20.30;;;;;;;4.66;40.41;99264.17;106129;1280;22563;-77
2022/03/12 10:12:04;;;;;;;21.00;18.90;;;;;;;4.77;40.05;99260.12;105737;1280;22722;-78
2022/03/12 10:14:32;;;;;;;23.50;19.50;;;;;;;4.87;40.08;99255.91;105755;1280;22557;-78
2022/03/12 10:17:04;;;;;;;22.00;19.80;;;;;;;4.99;39.83;99252.05;106116;1280;22554;-79
2022/03/12 10:19:36;;;;;;;22.70;20.30;;;;;;;5.05;39.43;99246.40;105882;1280;24250;-77
2022/03/12 10:22:05;;;;;;;29.70;21.30;;;;;;;5.11;38.86;99244.27;105480;1280;25493;-77
2022/03/12 10:24:35;;;;;;;26.80;20.60;;;;;;;5.19;38.86;99242.11;105488;1280;25321;-76
2022/03/12 10:27:07;;;;;;;23.50;21.10;;;;;;;5.23;38.34;99241.71;105754;1280;25173;-78
2022/03/12 10:29:38;;;;;;;38.40;23.70;;;;;;;5.26;38.72;99240.52;105741;1280;25503;-78
2022/03/12 10:32:27;;;;;;;21.00;18.60;;;;;;;5.39;38.56;99237.34;105928;1280;25074;-77
2022/03/12 10:34:59;;;;;;;21.10;16.20;;;;;;;5.55;38.73;99239.36;105687;1280;24390;-78
2022/03/12 10:37:33;;;;;;;18.90;16.70;;;;;;;5.70;38.82;99233.65;105850;1279;25379;-78
2022/03/12 10:40:20;;;;;;;23.00;19.10;;;;;;;5.81;38.15;99236.83;105676;1280;22555;-79
2022/03/12 10:42:56;;;;;;;21.90;19.70;;;;;;;5.88;38.03;99234.64;105731;1280;22662;-77
2022/03/12 10:45:31;;;;;;;20.10;17.20;;;;;;;5.94;37.68;99233.39;105703;1280;22556;-78
2022/03/12 10:48:03;;;;;;;21.90;15.20;;;;;;;6.01;37.62;99230.46;105819;1278;22718;-79
2022/03/12 10:50:46;;;;;;;17.60;15.00;;;;;;;6.09;37.12;99232.04;105940;1280;22659;-78
2022/03/12 10:53:18;;;;;;;20.10;15.70;;;;;;;6.13;36.50;99233.52;105793;1279;23188;-77
2022/03/12 10:55:50;;;;;;;17.20;15.50;;;;;;;6.15;36.30;99232.38;105768;1280;22588;-77
2022/03/12 10:58:23;;;;;;;21.80;17.50;;;;;;;6.22;36.25;99228.57;105778;1279;22560;-77
2022/03/12 11:00:55;;;;;;;17.40;15.20;;;;;;;6.26;36.08;99228.98;105847;1277;22671;-76
2022/03/12 11:03:25;;;;;;;17.50;15.70;;;;;;;6.32;35.80;99223.20;105832;1278;24391;-78
2022/03/12 11:05:56;;;;;;;16.00;14.20;;;;;;;6.36;35.17;99217.17;105768;1278;25487;-77
2022/03/12 11:08:31;;;;;;;14.00;12.50;;;;;;;6.43;35.06;99218.58;105918;1277;25413;-76
2022/03/12 11:11:06;;;;;;;11.60;10.40;;;;;;;6.51;34.69;99219.05;105736;1278;24160;-77
2022/03/12 11:13:51;;;;;;;12.70;11.10;;;;;;;6.64;34.86;99217.36;106014;1277;24368;-78
2022/03/12 11:16:22;;;;;;;10.60;9.50;;;;;;;6.75;34.53;99216.66;105775;1278;25407;-77
2022/03/12 11:18:52;;;;;;;11.10;9.50;;;;;;;6.89;34.39;99211.20;105785;1277;24662;-78
2022/03/12 11:21:47;;;;;;;11.70;9.90;;;;;;;6.96;33.19;99209.12;105769;1278;25375;-77
2022/03/12 11:24:22;;;;;;;16.20;9.20;;;;;;;7.03;32.72;99207.21;105744;1278;22560;-77
2022/03/12 11:26:52;;;;;;;13.20;7.70;;;;;;;7.04;33.22;99206.86;105860;1277;22711;-76
2022/03/12 11:29:26;;;;;;;10.50;9.10;;;;;;;7.11;32.80;99200.10;105761;1278;25362;-78